Hiko, Nevada
Current Conditions -  °F | °C
As of 7:23 AM on Thursday 18 Dec 2014 (Local Time) from KINS Reporting Station
Scattered Clouds Scattered Clouds  
Wind Chill:   Ceiling: Unl
Heat Index:   Visibility: 10mi
Dew Point:   Wind: 0mph
Humidity: 100%   Direction: NA
Pressure: 30.15"   Gusts: NA
Location:  37.6°N, 115.23°W
Report Text: KINS 181523Z AUTO 00000KT 10SM FEW047 SCT070 05/05 A3015 RMK AO2
Loading
Personal Weather Stations






























Interactive Weather Map New forecast layout! Learn more

10-Day Weather Forecast

Advertisements
Track Severe Weather on mobile